sensor_id;sensor_type;location;lat;lon;timestamp;pressure;altitude;pressure_sealevel;temperature;humidity
59055;BME280;44845;51.444;7.460;2023-07-13T00:01:59;99621.19;;;18.51;55.84
59055;BME280;44845;51.444;7.460;2023-07-13T00:04:24;99621.34;;;18.48;56.06
59055;BME280;44845;51.444;7.460;2023-07-13T00:06:51;99630.88;;;18.52;55.29
59055;BME280;44845;51.444;7.460;2023-07-13T00:09:17;99627.03;;;18.39;55.21
59055;BME280;44845;51.444;7.460;2023-07-13T00:11:44;99628.97;;;18.35;55.72
59055;BME280;44845;51.444;7.460;2023-07-13T00:14:11;99628.97;;;18.35;55.64
59055;BME280;44845;51.444;7.460;2023-07-13T00:16:38;99630.19;;;18.28;56.15
59055;BME280;44845;51.444;7.460;2023-07-13T00:19:05;99624.78;;;18.29;55.85
59055;BME280;44845;51.444;7.460;2023-07-13T00:21:31;99631.97;;;18.27;56.16
59055;BME280;44845;51.444;7.460;2023-07-13T00:23:56;99627.53;;;18.28;56.01
59055;BME280;44845;51.444;7.460;2023-07-13T00:26:22;99632.91;;;18.26;55.45
59055;BME280;44845;51.444;7.460;2023-07-13T00:28:48;99624.78;;;18.29;55.73
59055;BME280;44845;51.444;7.460;2023-07-13T00:31:13;99626.94;;;18.21;55.78
59055;BME280;44845;51.444;7.460;2023-07-13T00:33:40;99630.59;;;18.17;56.02
59055;BME280;44845;51.444;7.460;2023-07-13T00:36:06;99625.78;;;18.06;56.05
59055;BME280;44845;51.444;7.460;2023-07-13T00:38:31;99627.44;;;18.08;56.11
59055;BME280;44845;51.444;7.460;2023-07-13T00:40:57;99634.44;;;18.09;55.75
59055;BME280;44845;51.444;7.460;2023-07-13T00:43:23;99629.03;;;18.12;55.87
59055;BME280;44845;51.444;7.460;2023-07-13T00:48:18;99636.59;;;18.01;56.02
59055;BME280;44845;51.444;7.460;2023-07-13T00:50:47;99629.41;;;18.03;56.46
59055;BME280;44845;51.444;7.460;2023-07-13T00:53:13;99620.78;;;17.98;56.60
59055;BME280;44845;51.444;7.460;2023-07-13T00:55:39;99633.38;;;17.93;56.57
59055;BME280;44845;51.444;7.460;2023-07-13T00:58:04;99631.06;;;17.85;56.73
59055;BME280;44845;51.444;7.460;2023-07-13T01:00:32;99614.31;;;17.84;56.98
59055;BME280;44845;51.444;7.460;2023-07-13T01:02:58;99613.63;;;17.79;56.92
59055;BME280;44845;51.444;7.460;2023-07-13T01:05:24;99619.97;;;17.75;56.81
59055;BME280;44845;51.444;7.460;2023-07-13T01:07:51;99611.59;;;17.63;57.19
59055;BME280;44845;51.444;7.460;2023-07-13T01:10:19;99609.63;;;17.69;57.30
59055;BME280;44845;51.444;7.460;2023-07-13T01:12:46;99616.78;;;17.66;57.12
59055;BME280;44845;51.444;7.460;2023-07-13T01:15:43;99618.88;;;17.58;57.61
59055;BME280;44845;51.444;7.460;2023-07-13T01:18:29;99622.31;;;17.60;57.38
59055;BME280;44845;51.444;7.460;2023-07-13T01:20:59;99618.00;;;17.58;57.68
59055;BME280;44845;51.444;7.460;2023-07-13T01:23:27;99618.28;;;17.51;57.65
59055;BME280;44845;51.444;7.460;2023-07-13T01:25:54;99612.22;;;17.48;57.60
59055;BME280;44845;51.444;7.460;2023-07-13T01:28:21;99608.38;;;17.55;57.94
59055;BME280;44845;51.444;7.460;2023-07-13T01:30:47;99616.59;;;17.49;57.33
59055;BME280;44845;51.444;7.460;2023-07-13T01:33:17;99608.66;;;17.49;57.99
59055;BME280;44845;51.444;7.460;2023-07-13T01:35:43;99617.84;;;17.40;58.24
59055;BME280;44845;51.444;7.460;2023-07-13T01:38:09;99612.38;;;17.44;57.80
59055;BME280;44845;51.444;7.460;2023-07-13T01:40:36;99612.75;;;17.35;58.24
59055;BME280;44845;51.444;7.460;2023-07-13T01:43:02;99610.69;;;17.42;58.10
59055;BME280;44845;51.444;7.460;2023-07-13T01:45:28;99614.22;;;17.42;57.92
59055;BME280;44845;51.444;7.460;2023-07-13T01:47:53;99618.03;;;17.35;58.58
59055;BME280;44845;51.444;7.460;2023-07-13T01:50:18;99620.72;;;17.33;58.19
59055;BME280;44845;51.444;7.460;2023-07-13T01:52:44;99614.38;;;17.38;58.07
59055;BME280;44845;51.444;7.460;2023-07-13T01:55:09;99611.88;;;17.35;58.09
59055;BME280;44845;51.444;7.460;2023-07-13T01:57:35;99625.16;;;17.33;58.08
59055;BME280;44845;51.444;7.460;2023-07-13T02:00:03;99621.97;;;17.25;58.60
59055;BME280;44845;51.444;7.460;2023-07-13T02:02:31;99618.16;;;17.32;58.58
59055;BME280;44845;51.444;7.460;2023-07-13T02:04:56;99624.31;;;17.32;58.33
59055;BME280;44845;51.444;7.460;2023-07-13T02:07:22;99625.16;;;17.33;58.33
59055;BME280;44845;51.444;7.460;2023-07-13T02:09:47;99621.97;;;17.25;58.89
59055;BME280;44845;51.444;7.460;2023-07-13T02:12:12;99628.06;;;17.27;58.47
59055;BME280;44845;51.444;7.460;2023-07-13T02:14:38;99626.69;;;17.16;58.93
59055;BME280;44845;51.444;7.460;2023-07-13T02:17:04;99625.78;;;17.17;59.15
59055;BME280;44845;51.444;7.460;2023-07-13T02:19:29;99630.38;;;17.12;59.00
59055;BME280;44845;51.444;7.460;2023-07-13T02:21:54;99634.97;;;17.07;58.95
59055;BME280;44845;51.444;7.460;2023-07-13T02:24:20;99641.06;;;17.09;59.13
59055;BME280;44845;51.444;7.460;2023-07-13T02:26:46;99626.91;;;17.10;59.43
59055;BME280;44845;51.444;7.460;2023-07-13T02:29:12;99629.97;;;16.99;59.38
59055;BME280;44845;51.444;7.460;2023-07-13T02:31:37;99636.25;;;16.96;60.32
59055;BME280;44845;51.444;7.460;2023-07-13T02:34:03;99637.72;;;17.04;59.18
59055;BME280;44845;51.444;7.460;2023-07-13T02:36:30;99638.88;;;16.96;59.76
59055;BME280;44845;51.444;7.460;2023-07-13T02:38:57;99630.22;;;16.93;59.82
59055;BME280;44845;51.444;7.460;2023-07-13T02:41:23;99633.16;;;16.85;59.82
59055;BME280;44845;51.444;7.460;2023-07-13T02:43:48;99636.69;;;16.84;60.11
59055;BME280;44845;51.444;7.460;2023-07-13T02:46:14;99630.50;;;16.85;60.23
59055;BME280;44845;51.444;7.460;2023-07-13T02:48:39;99633.41;;;16.79;60.13
59055;BME280;44845;51.444;7.460;2023-07-13T02:51:05;99628.03;;;16.80;60.22
59055;BME280;44845;51.444;7.460;2023-07-13T02:53:30;99627.16;;;16.80;60.48
59055;BME280;44845;51.444;7.460;2023-07-13T02:55:56;99629.00;;;16.77;60.15
59055;BME280;44845;51.444;7.460;2023-07-13T02:58:21;99625.31;;;16.82;60.29
59055;BME280;44845;51.444;7.460;2023-07-13T03:00:47;99635.88;;;16.83;60.22
59055;BME280;44845;51.444;7.460;2023-07-13T03:03:16;99634.31;;;16.77;60.35
59055;BME280;44845;51.444;7.460;2023-07-13T03:05:43;99628.13;;;16.77;60.19
59055;BME280;44845;51.444;7.460;2023-07-13T03:08:10;99635.03;;;16.81;60.73
59055;BME280;44845;51.444;7.460;2023-07-13T03:10:36;99639.00;;;16.69;60.43
59055;BME280;44845;51.444;7.460;2023-07-13T03:13:02;99634.56;;;16.70;60.62
59055;BME280;44845;51.444;7.460;2023-07-13T03:15:27;99639.06;;;16.68;60.97
59055;BME280;44845;51.444;7.460;2023-07-13T03:17:53;99637.41;;;16.65;60.89
59055;BME280;44845;51.444;7.460;2023-07-13T03:20:18;99629.44;;;16.65;60.82
59055;BME280;44845;51.444;7.460;2023-07-13T03:22:44;99637.31;;;16.66;60.58
59055;BME280;44845;51.444;7.460;2023-07-13T03:25:09;99637.19;;;16.71;60.92
59055;BME280;44845;51.444;7.460;2023-07-13T03:27:36;99645.13;;;16.71;60.76
59055;BME280;44845;51.444;7.460;2023-07-13T03:30:01;99646.75;;;16.75;60.79
59055;BME280;44845;51.444;7.460;2023-07-13T03:32:27;99644.19;;;16.72;60.69
59055;BME280;44845;51.444;7.460;2023-07-13T03:34:52;99636.16;;;16.75;60.91
59055;BME280;44845;51.444;7.460;2023-07-13T03:37:18;99635.53;;;16.69;61.01
59055;BME280;44845;51.444;7.460;2023-07-13T03:39:43;99641.53;;;16.72;61.33
59055;BME280;44845;51.444;7.460;2023-07-13T03:42:08;99645.97;;;16.72;61.29
59055;BME280;44845;51.444;7.460;2023-07-13T03:44:35;99654.88;;;16.69;61.18
59055;BME280;44845;51.444;7.460;2023-07-13T03:47:00;99662.97;;;16.66;61.28
59055;BME280;44845;51.444;7.460;2023-07-13T03:49:25;99663.94;;;16.63;61.83
59055;BME280;44845;51.444;7.460;2023-07-13T03:51:51;99664.56;;;16.70;61.40
59055;BME280;44845;51.444;7.460;2023-07-13T03:54:16;99666.19;;;16.74;61.35
59055;BME280;44845;51.444;7.460;2023-07-13T03:56:41;99667.22;;;16.70;61.74
59055;BME280;44845;51.444;7.460;2023-07-13T03:59:07;99669.88;;;16.70;61.45
59055;BME280;44845;51.444;7.460;2023-07-13T04:01:33;99667.06;;;16.75;61.88
59055;BME280;44845;51.444;7.460;2023-07-13T04:03:59;99660.19;;;16.69;61.70
59055;BME280;44845;51.444;7.460;2023-07-13T04:06:29;99674.19;;;16.73;61.96
59055;BME280;44845;51.444;7.460;2023-07-13T04:08:58;99669.63;;;16.76;62.08
59055;BME280;44845;51.444;7.460;2023-07-13T04:11:26;99669.53;;;16.80;61.75
59055;BME280;44845;51.444;7.460;2023-07-13T04:13:52;99672.28;;;16.76;62.13
59055;BME280;44845;51.444;7.460;2023-07-13T04:16:18;99667.81;;;16.79;62.48
59055;BME280;44845;51.444;7.460;2023-07-13T04:18:45;99684.69;;;16.76;62.56
59055;BME280;44845;51.444;7.460;2023-07-13T04:21:11;99675.59;;;16.83;62.24
59055;BME280;44845;51.444;7.460;2023-07-13T04:23:37;99675.59;;;16.83;62.61
59055;BME280;44845;51.444;7.460;2023-07-13T04:26:03;99673.31;;;16.72;62.85
59055;BME280;44845;51.444;7.460;2023-07-13T04:28:29;99675.75;;;16.79;63.23
59055;BME280;44845;51.444;7.460;2023-07-13T04:30:54;99678.44;;;16.77;62.76
59055;BME280;44845;51.444;7.460;2023-07-13T04:33:20;99675.53;;;16.85;62.99
59055;BME280;44845;51.444;7.460;2023-07-13T04:35:50;99679.91;;;16.86;63.12
59055;BME280;44845;51.444;7.460;2023-07-13T04:38:20;99683.47;;;16.85;63.28
59055;BME280;44845;51.444;7.460;2023-07-13T04:40:45;99681.72;;;16.84;63.23
59055;BME280;44845;51.444;7.460;2023-07-13T04:43:10;99695.91;;;16.83;63.59
59055;BME280;44845;51.444;7.460;2023-07-13T04:45:36;99684.22;;;16.88;63.71
59055;BME280;44845;51.444;7.460;2023-07-13T04:48:01;99683.47;;;16.85;63.71
59055;BME280;44845;51.444;7.460;2023-07-13T04:50:26;99677.19;;;16.87;63.71
59055;BME280;44845;51.444;7.460;2023-07-13T04:52:52;99681.44;;;16.92;63.41
59055;BME280;44845;51.444;7.460;2023-07-13T04:55:18;99687.38;;;16.98;63.47
59055;BME280;44845;51.444;7.460;2023-07-13T04:57:44;99679.56;;;16.95;63.39
59055;BME280;44845;51.444;7.460;2023-07-13T05:00:11;99686.69;;;16.93;63.87
59055;BME280;44845;51.444;7.460;2023-07-13T05:02:38;99686.47;;;16.99;63.61
59055;BME280;44845;51.444;7.460;2023-07-13T05:05:04;99688.19;;;17.00;63.86
59055;BME280;44845;51.444;7.460;2023-07-13T05:07:30;99690.53;;;17.08;63.88
59055;BME280;44845;51.444;7.460;2023-07-13T05:09:55;99695.00;;;17.08;63.46
59055;BME280;44845;51.444;7.460;2023-07-13T05:12:21;99695.00;;;17.08;63.92
59055;BME280;44845;51.444;7.460;2023-07-13T05:14:46;99691.31;;;17.12;63.43
59055;BME280;44845;51.444;7.460;2023-07-13T05:17:11;99696.53;;;17.15;63.75
59055;BME280;44845;51.444;7.460;2023-07-13T05:19:37;99703.53;;;17.16;63.87
59055;BME280;44845;51.444;7.460;2023-07-13T05:22:02;99703.31;;;17.22;63.74
59055;BME280;44845;51.444;7.460;2023-07-13T05:24:29;99697.88;;;17.26;63.77
59055;BME280;44845;51.444;7.460;2023-07-13T05:26:55;99706.41;;;17.34;63.65
59055;BME280;44845;51.444;7.460;2023-07-13T05:29:21;99712.88;;;17.27;63.94
59055;BME280;44845;51.444;7.460;2023-07-13T05:31:47;99709.16;;;17.31;63.60
59055;BME280;44845;51.444;7.460;2023-07-13T05:34:12;99711.72;;;17.34;63.48
59055;BME280;44845;51.444;7.460;2023-07-13T05:36:38;99707.91;;;17.41;63.28
59055;BME280;44845;51.444;7.460;2023-07-13T05:39:04;99703.56;;;17.39;63.98
59055;BME280;44845;51.444;7.460;2023-07-13T05:41:29;99711.72;;;17.34;63.97
59055;BME280;44845;51.444;7.460;2023-07-13T05:43:54;99716.91;;;17.37;63.90
59055;BME280;44845;51.444;7.460;2023-07-13T05:46:20;99719.81;;;17.53;64.11
59055;BME280;44845;51.444;7.460;2023-07-13T05:48:45;99725.19;;;17.52;63.95
59055;BME280;44845;51.444;7.460;2023-07-13T05:51:11;99715.59;;;17.48;63.59
59055;BME280;44845;51.444;7.460;2023-07-13T05:53:36;99716.97;;;17.58;63.57
59055;BME280;44845;51.444;7.460;2023-07-13T05:56:01;99721.47;;;17.56;63.73
59055;BME280;44845;51.444;7.460;2023-07-13T05:58:27;99725.03;;;17.55;64.14
59055;BME280;44845;51.444;7.460;2023-07-13T06:01:03;99724.13;;;17.56;64.36
59055;BME280;44845;51.444;7.460;2023-07-13T06:03:29;99729.06;;;17.65;63.78
59055;BME280;44845;51.444;7.460;2023-07-13T06:05:54;99728.69;;;17.75;63.78
59055;BME280;44845;51.444;7.460;2023-07-13T06:08:20;99731.91;;;17.83;63.73
59055;BME280;44845;51.444;7.460;2023-07-13T06:10:45;99734.31;;;17.89;64.13
59055;BME280;44845;51.444;7.460;2023-07-13T06:13:11;99736.13;;;17.89;63.76
59055;BME280;44845;51.444;7.460;2023-07-13T06:15:36;99720.13;;;17.90;64.23
59055;BME280;44845;51.444;7.460;2023-07-13T06:18:01;99728.88;;;17.93;63.91
59055;BME280;44845;51.444;7.460;2023-07-13T06:20:27;99732.97;;;18.01;64.33
59055;BME280;44845;51.444;7.460;2023-07-13T06:22:54;99737.50;;;17.98;64.26
59055;BME280;44845;51.444;7.460;2023-07-13T06:25:19;99743.44;;;18.05;63.92
59055;BME280;44845;51.444;7.460;2023-07-13T06:27:44;99742.56;;;18.04;64.39
59055;BME280;44845;51.444;7.460;2023-07-13T06:30:10;99753.69;;;17.92;65.10
59055;BME280;44845;51.444;7.460;2023-07-13T06:32:36;99759.22;;;17.85;64.75
59055;BME280;44845;51.444;7.460;2023-07-13T06:35:01;99758.84;;;17.95;65.09
59055;BME280;44845;51.444;7.460;2023-07-13T06:37:27;99760.47;;;17.99;64.96
59055;BME280;44845;51.444;7.460;2023-07-13T06:39:52;99769.91;;;18.06;64.80
59055;BME280;44845;51.444;7.460;2023-07-13T06:42:17;99768.84;;;18.10;64.73
59055;BME280;44845;51.444;7.460;2023-07-13T06:44:43;99769.72;;;18.11;64.66
59055;BME280;44845;51.444;7.460;2023-07-13T06:47:08;99768.50;;;18.20;64.63
59055;BME280;44845;51.444;7.460;2023-07-13T06:49:33;99771.84;;;18.25;64.23
59055;BME280;44845;51.444;7.460;2023-07-13T06:51:59;99770.72;;;18.31;64.03
59055;BME280;44845;51.444;7.460;2023-07-13T06:54:24;99772.50;;;18.30;64.44
59055;BME280;44845;51.444;7.460;2023-07-13T06:56:50;99767.59;;;18.42;64.27
59055;BME280;44845;51.444;7.460;2023-07-13T06:59:15;99778.22;;;18.42;64.30
59055;BME280;44845;51.444;7.460;2023-07-13T07:01:40;99774.66;;;18.43;64.13
59055;BME280;44845;51.444;7.460;2023-07-13T07:04:06;99777.72;;;18.54;63.46
59055;BME280;44845;51.444;7.460;2023-07-13T07:06:31;99774.78;;;18.61;63.50
59055;BME280;44845;51.444;7.460;2023-07-13T07:08:57;99782.50;;;18.67;63.68
59055;BME280;44845;51.444;7.460;2023-07-13T07:11:24;99782.97;;;18.77;63.88
59055;BME280;44845;51.444;7.460;2023-07-13T07:13:51;99781.03;;;18.80;63.50
59055;BME280;44845;51.444;7.460;2023-07-13T07:16:18;99780.38;;;18.75;63.31
59055;BME280;44845;51.444;7.460;2023-07-13T07:18:43;99781.44;;;18.71;63.47
59055;BME280;44845;51.444;7.460;2023-07-13T07:21:09;99785.56;;;18.78;63.59
59055;BME280;44845;51.444;7.460;2023-07-13T07:23:35;99783.44;;;18.87;63.44
59055;BME280;44845;51.444;7.460;2023-07-13T07:26:00;99785.13;;;18.88;63.21
59055;BME280;44845;51.444;7.460;2023-07-13T07:28:25;99787.81;;;18.67;62.81
59055;BME280;44845;51.444;7.460;2023-07-13T07:30:54;99786.53;;;18.76;63.36
59055;BME280;44845;51.444;7.460;2023-07-13T07:33:20;99777.53;;;18.80;63.65
59055;BME280;44845;51.444;7.460;2023-07-13T07:35:45;99785.00;;;18.91;63.78
59055;BME280;44845;51.444;7.460;2023-07-13T07:38:11;99793.66;;;18.96;62.77
59055;BME280;44845;51.444;7.460;2023-07-13T07:40:38;99779.28;;;19.00;63.02
59055;BME280;44845;51.444;7.460;2023-07-13T07:43:04;99789.78;;;19.04;62.57
59055;BME280;44845;51.444;7.460;2023-07-13T07:45:29;99791.13;;;19.14;62.74
59055;BME280;44845;51.444;7.460;2023-07-13T07:47:55;99784.97;;;19.33;62.12
59055;BME280;44845;51.444;7.460;2023-07-13T07:50:24;99780.44;;;19.35;61.68
59055;BME280;44845;51.444;7.460;2023-07-13T07:52:49;99785.53;;;19.20;62.26
59055;BME280;44845;51.444;7.460;2023-07-13T07:55:15;99779.81;;;19.30;62.16
59055;BME280;44845;51.444;7.460;2023-07-13T07:57:40;99780.75;;;19.29;62.60
59055;BME280;44845;51.444;7.460;2023-07-13T08:00:07;99780.44;;;19.35;62.17
59055;BME280;44845;51.444;7.460;2023-07-13T08:02:33;99789.16;;;19.39;62.51
59055;BME280;44845;51.444;7.460;2023-07-13T08:04:58;99788.22;;;19.40;62.01
59055;BME280;44845;51.444;7.460;2023-07-13T08:07:23;99788.50;;;19.33;61.73
59055;BME280;44845;51.444;7.460;2023-07-13T08:09:52;99791.88;;;19.37;62.11
59055;BME280;44845;51.444;7.460;2023-07-13T08:12:18;99789.38;;;19.34;62.41
59055;BME280;44845;51.444;7.460;2023-07-13T08:14:43;99794.50;;;19.39;62.31
59055;BME280;44845;51.444;7.460;2023-07-13T08:17:08;99794.63;;;19.55;62.19
59055;BME280;44845;51.444;7.460;2023-07-13T08:19:34;99791.63;;;19.63;62.00
59055;BME280;44845;51.444;7.460;2023-07-13T08:21:59;99792.31;;;19.66;61.88
59055;BME280;44845;51.444;7.460;2023-07-13T08:24:24;99792.19;;;19.69;61.23
59055;BME280;44845;51.444;7.460;2023-07-13T08:26:51;99800.25;;;19.49;60.96
59055;BME280;44845;51.444;7.460;2023-07-13T08:29:16;99788.09;;;19.62;61.08
59055;BME280;44845;51.444;7.460;2023-07-13T08:31:42;99793.53;;;19.59;61.81
59055;BME280;44845;51.444;7.460;2023-07-13T08:34:07;99784.16;;;19.71;61.23
59055;BME280;44845;51.444;7.460;2023-07-13T08:36:32;99784.72;;;19.78;60.75
59055;BME280;44845;51.444;7.460;2023-07-13T08:38:58;99782.06;;;19.78;60.73
59055;BME280;44845;51.444;7.460;2023-07-13T08:41:23;99786.72;;;19.73;60.90
59055;BME280;44845;51.444;7.460;2023-07-13T08:43:51;99784.56;;;19.62;61.65
59055;BME280;44845;51.444;7.460;2023-07-13T08:46:24;99780.84;;;19.66;61.16
59055;BME280;44845;51.444;7.460;2023-07-13T08:48:54;99788.84;;;19.84;61.50
59055;BME280;44845;51.444;7.460;2023-07-13T08:51:39;99780.69;;;19.88;61.93
59055;BME280;44845;51.444;7.460;2023-07-13T08:54:16;99781.78;;;20.02;60.18
59055;BME280;44845;51.444;7.460;2023-07-13T08:56:45;99777.16;;;19.88;60.99
59055;BME280;44845;51.444;7.460;2023-07-13T08:59:15;99786.13;;;19.85;61.06
59055;BME280;44845;51.444;7.460;2023-07-13T09:04:22;99775.91;;;20.14;59.60
59055;BME280;44845;51.444;7.460;2023-07-13T09:06:57;99774.16;;;20.13;60.48
59055;BME280;44845;51.444;7.460;2023-07-13T09:12:19;99786.75;;;20.47;59.97
59055;BME280;44845;51.444;7.460;2023-07-13T09:14:53;99787.53;;;20.67;58.15
59055;BME280;44845;51.444;7.460;2023-07-13T09:17:25;99786.19;;;20.58;59.12
59055;BME280;44845;51.444;7.460;2023-07-13T09:19:58;99777.31;;;20.75;58.93
59055;BME280;44845;51.444;7.460;2023-07-13T09:22:25;99790.94;;;20.87;58.83
59055;BME280;44845;51.444;7.460;2023-07-13T09:24:57;99787.97;;;20.93;57.68
59055;BME280;44845;51.444;7.460;2023-07-13T09:27:43;99788.75;;;20.95;57.25
59055;BME280;44845;51.444;7.460;2023-07-13T09:32:41;99784.84;;;20.85;58.73
59055;BME280;44845;51.444;7.460;2023-07-13T09:35:19;99797.88;;;20.73;58.12
59055;BME280;44845;51.444;7.460;2023-07-13T09:37:45;99796.31;;;20.69;58.50
59055;BME280;44845;51.444;7.460;2023-07-13T09:40:27;99786.09;;;20.77;58.21
59055;BME280;44845;51.444;7.460;2023-07-13T09:42:54;99796.31;;;20.51;58.14
59055;BME280;44845;51.444;7.460;2023-07-13T09:45:29;99795.81;;;20.78;57.12
59055;BME280;44845;51.444;7.460;2023-07-13T09:48:06;99796.38;;;20.85;57.59
59055;BME280;44845;51.444;7.460;2023-07-13T09:50:33;99792.06;;;20.82;57.72
59055;BME280;44845;51.444;7.460;2023-07-13T09:53:00;99790.16;;;20.85;57.50
59055;BME280;44845;51.444;7.460;2023-07-13T09:55:36;99792.38;;;20.94;57.25
59055;BME280;44845;51.444;7.460;2023-07-13T09:58:11;99786.41;;;20.89;58.42
59055;BME280;44845;51.444;7.460;2023-07-13T10:00:37;99789.00;;;20.90;57.70
59055;BME280;44845;51.444;7.460;2023-07-13T10:03:16;99792.38;;;20.94;58.06
59055;BME280;44845;51.444;7.460;2023-07-13T10:05:44;99792.28;;;20.78;59.64
59055;BME280;44845;51.444;7.460;2023-07-13T10:08:27;99783.50;;;20.93;56.90
59055;BME280;44845;51.444;7.460;2023-07-13T10:10:58;99790.31;;;20.99;57.54
59055;BME280;44845;51.444;7.460;2023-07-13T10:13:33;99795.34;;;21.06;57.93
59055;BME280;44845;51.444;7.460;2023-07-13T10:16:02;99787.03;;;21.12;56.67
59055;BME280;44845;51.444;7.460;2023-07-13T10:18:33;99788.91;;;21.10;56.70
59055;BME280;44845;51.444;7.460;2023-07-13T10:21:11;99792.19;;;21.15;56.81
59055;BME280;44845;51.444;7.460;2023-07-13T10:23:36;99792.94;;;21.35;56.40
59055;BME280;44845;51.444;7.460;2023-07-13T10:26:03;99803.44;;;21.38;57.10
59055;BME280;44845;51.444;7.460;2023-07-13T10:28:35;99803.06;;;21.28;56.12
59055;BME280;44845;51.444;7.460;2023-07-13T10:31:02;99801.47;;;21.08;56.10
59055;BME280;44845;51.444;7.460;2023-07-13T10:33:30;99803.63;;;20.99;56.26
59055;BME280;44845;51.444;7.460;2023-07-13T10:36:07;99800.59;;;21.07;56.26
59055;BME280;44845;51.444;7.460;2023-07-13T10:38:37;99804.97;;;20.90;56.93
59055;BME280;44845;51.444;7.460;2023-07-13T10:41:06;99805.47;;;20.81;57.33
59055;BME280;44845;51.444;7.460;2023-07-13T10:43:43;99806.00;;;20.88;57.57
59055;BME280;44845;51.444;7.460;2023-07-13T10:46:12;99802.06;;;20.95;58.35
59055;BME280;44845;51.444;7.460;2023-07-13T10:48:39;99809.91;;;20.98;58.48
59055;BME280;44845;51.444;7.460;2023-07-13T10:51:07;99801.41;;;20.91;57.11
59055;BME280;44845;51.444;7.460;2023-07-13T10:53:34;99805.53;;;20.97;57.20
59055;BME280;44845;51.444;7.460;2023-07-13T10:56:04;99805.53;;;20.97;57.93
59055;BME280;44845;51.444;7.460;2023-07-13T10:58:40;99810.72;;;21.00;57.59
59055;BME280;44845;51.444;7.460;2023-07-13T11:03:34;99813.38;;;21.18;58.05
59055;BME280;44845;51.444;7.460;2023-07-13T11:06:11;99818.84;;;21.15;57.60
59055;BME280;44845;51.444;7.460;2023-07-13T11:11:40;99817.13;;;21.14;57.30
59055;BME280;44845;51.444;7.460;2023-07-13T11:14:35;99817.69;;;21.21;56.63
59055;BME280;44845;51.444;7.460;2023-07-13T11:19:53;99815.31;;;21.48;54.91
59055;BME280;44845;51.444;7.460;2023-07-13T11:27:51;99827.50;;;21.36;54.67
59055;BME280;44845;51.444;7.460;2023-07-13T11:30:24;99825.63;;;21.38;55.70
59055;BME280;44845;51.444;7.460;2023-07-13T11:32:52;99830.13;;;21.38;55.72
59055;BME280;44845;51.444;7.460;2023-07-13T11:35:28;99828.88;;;21.27;56.36
59055;BME280;44845;51.444;7.460;2023-07-13T11:37:53;99826.06;;;21.31;56.19
59055;BME280;44845;51.444;7.460;2023-07-13T11:40:22;99821.31;;;21.36;57.24
59055;BME280;44845;51.444;7.460;2023-07-13T11:42:50;99827.13;;;21.26;56.79
59055;BME280;44845;51.444;7.460;2023-07-13T11:45:21;99826.06;;;21.31;55.87
59055;BME280;44845;51.444;7.460;2023-07-13T11:47:50;99817.72;;;21.37;56.79
59055;BME280;44845;51.444;7.460;2023-07-13T11:50:20;99815.44;;;21.29;55.93
59055;BME280;44845;51.444;7.460;2023-07-13T11:52:48;99813.75;;;21.28;55.43
59055;BME280;44845;51.444;7.460;2023-07-13T11:55:17;99825.31;;;21.11;55.63
59055;BME280;44845;51.444;7.460;2023-07-13T11:58:00;99817.69;;;21.21;56.66
59055;BME280;44845;51.444;7.460;2023-07-13T12:00:29;99818.53;;;21.21;57.12
59055;BME280;44845;51.444;7.460;2023-07-13T12:02:57;99815.00;;;21.21;57.01
59055;BME280;44845;51.444;7.460;2023-07-13T12:05:24;99810.06;;;21.31;56.96
59055;BME280;44845;51.444;7.460;2023-07-13T12:07:50;99805.81;;;21.26;57.36
59055;BME280;44845;51.444;7.460;2023-07-13T12:10:20;99801.72;;;21.37;56.68
59055;BME280;44845;51.444;7.460;2023-07-13T12:12:48;99797.75;;;21.44;55.58
59055;BME280;44845;51.444;7.460;2023-07-13T12:15:14;99790.38;;;21.49;55.34
59055;BME280;44845;51.444;7.460;2023-07-13T12:17:41;99795.81;;;21.48;54.74
59055;BME280;44845;51.444;7.460;2023-07-13T12:20:27;99797.25;;;21.54;55.30
59055;BME280;44845;51.444;7.460;2023-07-13T12:22:53;99798.22;;;21.53;55.78
59055;BME280;44845;51.444;7.460;2023-07-13T12:25:19;99789.34;;;21.52;54.73
59055;BME280;44845;51.444;7.460;2023-07-13T12:27:49;99794.69;;;21.52;55.19
59055;BME280;44845;51.444;7.460;2023-07-13T12:30:28;99804.16;;;21.58;54.92
59055;BME280;44845;51.444;7.460;2023-07-13T12:33:05;99803.09;;;21.60;52.46
59055;BME280;44845;51.444;7.460;2023-07-13T12:35:40;99802.69;;;21.68;51.81
59055;BME280;44845;51.444;7.460;2023-07-13T12:38:08;99805.19;;;21.71;51.89
59055;BME280;44845;51.444;7.460;2023-07-13T12:40:35;99796.81;;;21.78;52.41
59055;BME280;44845;51.444;7.460;2023-07-13T12:43:01;99794.88;;;21.81;51.83
59055;BME280;44845;51.444;7.460;2023-07-13T12:45:29;99791.59;;;21.92;52.54
59055;BME280;44845;51.444;7.460;2023-07-13T12:47:57;99793.84;;;22.00;53.19
59055;BME280;44845;51.444;7.460;2023-07-13T12:50:33;99808.81;;;22.03;52.78
59055;BME280;44845;51.444;7.460;2023-07-13T12:53:03;99809.72;;;21.87;51.44
59055;BME280;44845;51.444;7.460;2023-07-13T12:55:29;99807.28;;;21.82;50.85
59055;BME280;44845;51.444;7.460;2023-07-13T12:57:59;99798.84;;;21.90;50.75
59055;BME280;44845;51.444;7.460;2023-07-13T13:00:34;99798.84;;;21.90;51.58
59055;BME280;44845;51.444;7.460;2023-07-13T13:03:28;99807.81;;;21.89;51.40
59055;BME280;44845;51.444;7.460;2023-07-13T13:05:57;99802.28;;;21.92;52.66
59055;BME280;44845;51.444;7.460;2023-07-13T13:08:24;99804.19;;;21.90;52.35
59055;BME280;44845;51.444;7.460;2023-07-13T13:10:49;99806.22;;;21.85;52.67
59055;BME280;44845;51.444;7.460;2023-07-13T13:13:14;99795.25;;;21.91;52.63
59055;BME280;44845;51.444;7.460;2023-07-13T13:15:40;99799.53;;;21.94;52.89
59055;BME280;44845;51.444;7.460;2023-07-13T13:18:15;99798.50;;;21.97;53.73
59055;BME280;44845;51.444;7.460;2023-07-13T13:20:41;99798.69;;;21.93;53.44
59055;BME280;44845;51.444;7.460;2023-07-13T13:23:12;99804.19;;;21.90;52.07
59055;BME280;44845;51.444;7.460;2023-07-13T13:25:37;99799.19;;;22.00;51.18
59055;BME280;44845;51.444;7.460;2023-07-13T13:28:03;99805.56;;;21.98;50.82